UAE467 OBBI-OMDB
Flight info
| Callsign | UAE467 |
|---|---|
| Flight time | 0h 55m |
| Altitude | 25000 |
| Route | BHR N697 SODAK P559 VUTEB |
| Aircraft | A320/M-SDE3FGHIRWY/LB1 |
Departure
| Time | 2026-04-26 16:20 |
|---|---|
| Airport | Bahrain International Airport (OBBI) |
Arrival
| Time | 2026-04-26 17:15 |
|---|---|
| Airport | Dubai International Airport (OMDB) |
| Time | Latitude | Longitude | Altitude | Speed | Heading |
|---|---|---|---|---|---|
| 2026-04-26 15:50 | 26.26966 | 50.62783 | 15 ft | 0 kts | 214° |
| 2026-04-26 16:06 | 26.26976 | 50.62790 | 16 ft | 2 kts | 214° |
| 2026-04-26 16:06 | 26.26990 | 50.62801 | 15 ft | 2 kts | 214° |
| 2026-04-26 16:07 | 26.27004 | 50.62811 | 17 ft | 2 kts | 214° |
| 2026-04-26 16:07 | 26.27017 | 50.62822 | 15 ft | 1 kts | 206° |
| 2026-04-26 16:07 | 26.27030 | 50.62828 | 17 ft | 2 kts | 204° |
| 2026-04-26 16:07 | 26.27045 | 50.62836 | 18 ft | 2 kts | 204° |
| 2026-04-26 16:08 | 26.27062 | 50.62842 | 16 ft | 2 kts | 153° |
| 2026-04-26 16:08 | 26.27068 | 50.62837 | 15 ft | 0 kts | 128° |
| 2026-04-26 16:10 | 26.27066 | 50.62841 | 15 ft | 4 kts | 128° |
| 2026-04-26 16:10 | 26.27080 | 50.62892 | 16 ft | 12 kts | 44° |
| 2026-04-26 16:11 | 26.27113 | 50.62936 | 15 ft | 9 kts | 80° |
| 2026-04-26 16:11 | 26.27079 | 50.63017 | 15 ft | 14 kts | 123° |
| 2026-04-26 16:11 | 26.27023 | 50.63113 | 14 ft | 18 kts | 123° |
| 2026-04-26 16:11 | 26.26947 | 50.63248 | 12 ft | 23 kts | 122° |
| 2026-04-26 16:12 | 26.26854 | 50.63415 | 14 ft | 25 kts | 125° |
| 2026-04-26 16:12 | 26.26742 | 50.63587 | 14 ft | 29 kts | 124° |
| 2026-04-26 16:12 | 26.26505 | 50.64014 | 14 ft | 35 kts | 122° |
| 2026-04-26 16:13 | 26.26369 | 50.64254 | 13 ft | 38 kts | 123° |
| 2026-04-26 16:13 | 26.26226 | 50.64486 | 12 ft | 20 kts | 124° |
| 2026-04-26 16:13 | 26.26216 | 50.64502 | 14 ft | 2 kts | 124° |
| 2026-04-26 16:13 | 26.26205 | 50.64521 | 12 ft | 6 kts | 124° |
| 2026-04-26 16:14 | 26.26168 | 50.64596 | 13 ft | 16 kts | 125° |
| 2026-04-26 16:14 | 26.26088 | 50.64734 | 14 ft | 26 kts | 123° |
| 2026-04-26 16:14 | 26.26033 | 50.64828 | 14 ft | 0 kts | 123° |
| 2026-04-26 16:15 | 26.26025 | 50.64841 | 15 ft | 6 kts | 123° |
| 2026-04-26 16:15 | 26.26016 | 50.64921 | 15 ft | 15 kts | 74° |
| 2026-04-26 16:15 | 26.26034 | 50.64955 | 16 ft | 0 kts | 51° |
| 2026-04-26 16:16 | 26.26037 | 50.64958 | 15 ft | 0 kts | 41° |
| 2026-04-26 16:17 | 26.26042 | 50.64962 | 15 ft | 4 kts | 37° |
| 2026-04-26 16:18 | 26.26093 | 50.64998 | 16 ft | 13 kts | 35° |
| 2026-04-26 16:18 | 26.26173 | 50.64944 | 17 ft | 0 kts | 302° |
| 2026-04-26 16:19 | 26.26190 | 50.64913 | 15 ft | 29 kts | 302° |
| 2026-04-26 16:19 | 26.26440 | 50.64486 | 12 ft | 99 kts | 303° |
| 2026-04-26 16:19 | 26.27338 | 50.62962 | 103 ft | 170 kts | 302° |
| 2026-04-26 16:20 | 26.28120 | 50.61422 | 916 ft | 173 kts | 301° |
| 2026-04-26 16:20 | 26.30028 | 50.59913 | 1913 ft | 187 kts | 345° |
| 2026-04-26 16:20 | 26.31365 | 50.59549 | 2121 ft | 209 kts | 347° |
| 2026-04-26 16:21 | 26.32870 | 50.59186 | 2346 ft | 234 kts | 348° |
| 2026-04-26 16:21 | 26.34568 | 50.59109 | 2681 ft | 258 kts | 12° |
| 2026-04-26 16:21 | 26.36177 | 50.60056 | 3300 ft | 271 kts | 43° |
| 2026-04-26 16:21 | 26.37470 | 50.61628 | 3829 ft | 278 kts | 46° |
| 2026-04-26 16:22 | 26.38791 | 50.63212 | 3966 ft | 279 kts | 45° |
| 2026-04-26 16:22 | 26.40126 | 50.64776 | 4006 ft | 278 kts | 44° |
| 2026-04-26 16:22 | 26.41471 | 50.66339 | 4135 ft | 281 kts | 44° |
| 2026-04-26 16:22 | 26.42829 | 50.67919 | 4977 ft | 283 kts | 44° |
| 2026-04-26 16:23 | 26.44196 | 50.69519 | 5772 ft | 286 kts | 44° |
| 2026-04-26 16:23 | 26.45574 | 50.71139 | 6567 ft | 289 kts | 44° |
| 2026-04-26 16:23 | 26.46965 | 50.72777 | 7322 ft | 292 kts | 44° |
| 2026-04-26 16:23 | 26.48368 | 50.74432 | 8107 ft | 295 kts | 44° |
| 2026-04-26 16:24 | 26.49783 | 50.76103 | 8882 ft | 298 kts | 44° |
| 2026-04-26 16:24 | 26.51213 | 50.77792 | 9675 ft | 301 kts | 44° |
| 2026-04-26 16:24 | 26.52667 | 50.79510 | 10208 ft | 313 kts | 44° |
| 2026-04-26 16:24 | 26.54217 | 50.81341 | 10416 ft | 336 kts | 44° |
| 2026-04-26 16:25 | 26.55881 | 50.83309 | 10564 ft | 359 kts | 44° |
| 2026-04-26 16:25 | 26.57634 | 50.85383 | 10905 ft | 373 kts | 45° |
| 2026-04-26 16:25 | 26.59404 | 50.87483 | 11463 ft | 379 kts | 45° |
| 2026-04-26 16:25 | 26.61240 | 50.89671 | 12086 ft | 383 kts | 45° |
| 2026-04-26 16:26 | 26.63049 | 50.91828 | 12707 ft | 387 kts | 45° |
| 2026-04-26 16:26 | 26.64299 | 50.93315 | 13129 ft | 390 kts | 45° |
| 2026-04-26 16:26 | 26.66784 | 50.96266 | 13918 ft | 396 kts | 45° |
| 2026-04-26 16:26 | 26.68679 | 50.98518 | 14468 ft | 399 kts | 45° |
| 2026-04-26 16:27 | 26.70588 | 51.00789 | 15009 ft | 403 kts | 45° |
| 2026-04-26 16:27 | 26.72513 | 51.03088 | 15530 ft | 407 kts | 46° |
| 2026-04-26 16:27 | 26.74183 | 51.05663 | 16037 ft | 413 kts | 60° |
| 2026-04-26 16:27 | 26.75294 | 51.08648 | 16532 ft | 419 kts | 74° |
| 2026-04-26 16:28 | 26.75771 | 51.11876 | 16915 ft | 423 kts | 88° |
| 2026-04-26 16:28 | 26.75565 | 51.15154 | 17009 ft | 423 kts | 103° |
| 2026-04-26 16:28 | 26.74707 | 51.18285 | 17024 ft | 421 kts | 112° |
| 2026-04-26 16:28 | 26.73699 | 51.21368 | 17021 ft | 423 kts | 111° |
| 2026-04-26 16:29 | 26.72696 | 51.24463 | 17018 ft | 423 kts | 111° |
| 2026-04-26 16:29 | 26.71701 | 51.27557 | 17022 ft | 423 kts | 111° |
| 2026-04-26 16:29 | 26.70704 | 51.30668 | 17256 ft | 427 kts | 111° |
| 2026-04-26 16:29 | 26.69701 | 51.33802 | 17816 ft | 430 kts | 111° |
| 2026-04-26 16:30 | 26.68689 | 51.36959 | 18356 ft | 432 kts | 111° |
| 2026-04-26 16:30 | 26.67668 | 51.40131 | 18812 ft | 435 kts | 111° |
| 2026-04-26 16:30 | 26.66648 | 51.43287 | 19235 ft | 439 kts | 112° |
| 2026-04-26 16:30 | 26.65607 | 51.46508 | 19658 ft | 443 kts | 112° |
| 2026-04-26 16:31 | 26.64556 | 51.49766 | 20076 ft | 446 kts | 112° |
| 2026-04-26 16:31 | 26.63500 | 51.53042 | 20487 ft | 450 kts | 112° |
| 2026-04-26 16:31 | 26.62438 | 51.56349 | 20882 ft | 454 kts | 112° |
| 2026-04-26 16:31 | 26.61369 | 51.59687 | 21270 ft | 458 kts | 112° |
| 2026-04-26 16:32 | 26.60289 | 51.63054 | 21685 ft | 461 kts | 112° |
| 2026-04-26 16:32 | 26.59555 | 51.65336 | 21958 ft | 464 kts | 113° |
| 2026-04-26 16:32 | 26.58100 | 51.69846 | 22483 ft | 468 kts | 113° |
| 2026-04-26 16:32 | 26.56990 | 51.73282 | 22875 ft | 472 kts | 113° |
| 2026-04-26 16:33 | 26.55872 | 51.76740 | 23255 ft | 475 kts | 114° |
| 2026-04-26 16:33 | 26.54741 | 51.80227 | 23601 ft | 479 kts | 114° |
| 2026-04-26 16:33 | 26.53605 | 51.83731 | 23879 ft | 482 kts | 113° |
| 2026-04-26 16:33 | 26.52461 | 51.87266 | 24173 ft | 486 kts | 113° |
| 2026-04-26 16:34 | 26.51302 | 51.90823 | 24479 ft | 488 kts | 114° |
| 2026-04-26 16:34 | 26.50123 | 51.94389 | 24774 ft | 491 kts | 114° |
| 2026-04-26 16:34 | 26.48930 | 51.97969 | 24958 ft | 493 kts | 113° |
| 2026-04-26 16:34 | 26.47722 | 52.01572 | 25006 ft | 500 kts | 114° |
| 2026-04-26 16:35 | 26.46496 | 52.05223 | 25007 ft | 503 kts | 114° |
| 2026-04-26 16:35 | 26.45269 | 52.08879 | 25005 ft | 504 kts | 114° |
| 2026-04-26 16:35 | 26.44040 | 52.12544 | 25005 ft | 504 kts | 113° |
| 2026-04-26 16:35 | 26.42816 | 52.16205 | 25005 ft | 504 kts | 113° |
| 2026-04-26 16:36 | 26.41594 | 52.19874 | 25002 ft | 504 kts | 113° |
| 2026-04-26 16:36 | 26.40388 | 52.23493 | 25003 ft | 504 kts | 113° |
| 2026-04-26 16:36 | 26.39164 | 52.27157 | 25002 ft | 504 kts | 113° |
| 2026-04-26 16:36 | 26.37941 | 52.30813 | 25002 ft | 503 kts | 114° |
| 2026-04-26 16:37 | 26.36714 | 52.34469 | 24984 ft | 503 kts | 114° |
| 2026-04-26 16:37 | 26.35485 | 52.38122 | 24981 ft | 503 kts | 114° |
| 2026-04-26 16:37 | 26.34205 | 52.41757 | 24981 ft | 502 kts | 115° |
| 2026-04-26 16:37 | 26.33319 | 52.44139 | 24982 ft | 502 kts | 116° |
| 2026-04-26 16:38 | 26.31460 | 52.48916 | 24979 ft | 501 kts | 117° |
| 2026-04-26 16:38 | 26.30046 | 52.52465 | 24980 ft | 501 kts | 117° |
| 2026-04-26 16:38 | 26.28634 | 52.56018 | 24981 ft | 501 kts | 117° |
| 2026-04-26 16:38 | 26.27235 | 52.59577 | 24981 ft | 502 kts | 117° |
| 2026-04-26 16:39 | 26.25850 | 52.63142 | 24982 ft | 502 kts | 117° |
| 2026-04-26 16:39 | 26.24472 | 52.66722 | 24984 ft | 502 kts | 116° |
| 2026-04-26 16:39 | 26.23107 | 52.70302 | 24971 ft | 502 kts | 116° |
| 2026-04-26 16:39 | 26.21747 | 52.73890 | 24971 ft | 503 kts | 116° |
| 2026-04-26 16:40 | 26.20403 | 52.77428 | 24968 ft | 503 kts | 116° |
| 2026-04-26 16:40 | 26.19019 | 52.81056 | 24966 ft | 503 kts | 116° |
| 2026-04-26 16:40 | 26.17645 | 52.84644 | 24966 ft | 504 kts | 116° |
| 2026-04-26 16:40 | 26.16286 | 52.88179 | 24966 ft | 504 kts | 117° |
| 2026-04-26 16:41 | 26.14884 | 52.91819 | 24968 ft | 504 kts | 117° |
| 2026-04-26 16:41 | 26.13521 | 52.95355 | 24969 ft | 504 kts | 117° |
| 2026-04-26 16:41 | 26.12137 | 52.98950 | 24968 ft | 505 kts | 117° |
| 2026-04-26 16:41 | 26.10754 | 53.02545 | 24969 ft | 505 kts | 116° |
| 2026-04-26 16:42 | 26.09378 | 53.06137 | 24957 ft | 505 kts | 116° |
| 2026-04-26 16:42 | 26.08030 | 53.09746 | 24959 ft | 506 kts | 115° |
| 2026-04-26 16:42 | 26.06708 | 53.13371 | 24961 ft | 506 kts | 115° |
| 2026-04-26 16:42 | 26.05399 | 53.17003 | 24959 ft | 506 kts | 115° |
| 2026-04-26 16:43 | 26.04088 | 53.20636 | 24968 ft | 506 kts | 115° |
| 2026-04-26 16:43 | 26.02767 | 53.24263 | 24969 ft | 506 kts | 115° |
| 2026-04-26 16:43 | 26.01435 | 53.27885 | 24967 ft | 506 kts | 115° |
| 2026-04-26 16:43 | 26.00095 | 53.31502 | 24967 ft | 506 kts | 115° |
| 2026-04-26 16:44 | 25.98751 | 53.35120 | 24963 ft | 506 kts | 115° |
| 2026-04-26 16:44 | 25.97407 | 53.38739 | 24966 ft | 506 kts | 115° |
| 2026-04-26 16:44 | 25.96068 | 53.42354 | 24968 ft | 506 kts | 115° |
| 2026-04-26 16:44 | 25.94728 | 53.45972 | 24968 ft | 506 kts | 115° |
| 2026-04-26 16:45 | 25.93386 | 53.49589 | 24965 ft | 506 kts | 115° |
| 2026-04-26 16:45 | 25.92507 | 53.51989 | 24967 ft | 507 kts | 115° |
| 2026-04-26 16:45 | 25.90788 | 53.56873 | 24963 ft | 507 kts | 114° |
| 2026-04-26 16:45 | 25.89960 | 53.59303 | 24966 ft | 507 kts | 113° |
| 2026-04-26 16:46 | 25.88723 | 53.62978 | 24967 ft | 507 kts | 113° |
| 2026-04-26 16:46 | 25.87496 | 53.66639 | 24569 ft | 504 kts | 113° |
| 2026-04-26 16:46 | 25.86264 | 53.70284 | 23759 ft | 504 kts | 114° |
| 2026-04-26 16:46 | 25.85026 | 53.73900 | 23091 ft | 499 kts | 114° |
| 2026-04-26 16:47 | 25.83789 | 53.77466 | 22495 ft | 491 kts | 114° |
| 2026-04-26 16:47 | 25.82569 | 53.80959 | 21989 ft | 481 kts | 114° |
| 2026-04-26 16:47 | 25.81367 | 53.84391 | 21435 ft | 473 kts | 114° |
| 2026-04-26 16:47 | 25.80182 | 53.87772 | 20850 ft | 467 kts | 114° |
| 2026-04-26 16:48 | 25.79014 | 53.91114 | 20259 ft | 462 kts | 114° |
| 2026-04-26 16:48 | 25.77875 | 53.94381 | 19710 ft | 457 kts | 114° |
| 2026-04-26 16:48 | 25.76736 | 53.97651 | 19144 ft | 452 kts | 113° |
| 2026-04-26 16:48 | 25.75613 | 54.00881 | 18600 ft | 446 kts | 113° |
| 2026-04-26 16:49 | 25.74542 | 54.04090 | 18087 ft | 441 kts | 111° |
| 2026-04-26 16:49 | 25.73540 | 54.07290 | 17462 ft | 437 kts | 110° |
| 2026-04-26 16:49 | 25.72584 | 54.10471 | 16857 ft | 433 kts | 110° |
| 2026-04-26 16:49 | 25.71647 | 54.13635 | 16273 ft | 429 kts | 110° |
| 2026-04-26 16:50 | 25.70716 | 54.16759 | 15686 ft | 425 kts | 110° |
| 2026-04-26 16:50 | 25.69782 | 54.19859 | 15159 ft | 422 kts | 110° |
| 2026-04-26 16:50 | 25.68845 | 54.22937 | 14973 ft | 422 kts | 110° |
| 2026-04-26 16:50 | 25.67899 | 54.26015 | 14970 ft | 421 kts | 110° |
| 2026-04-26 16:51 | 25.66946 | 54.29087 | 14969 ft | 422 kts | 110° |
| 2026-04-26 16:51 | 25.65988 | 54.32166 | 14965 ft | 422 kts | 110° |
| 2026-04-26 16:51 | 25.65029 | 54.35242 | 14969 ft | 422 kts | 110° |
| 2026-04-26 16:51 | 25.64070 | 54.38319 | 14959 ft | 422 kts | 110° |
| 2026-04-26 16:52 | 25.63122 | 54.41371 | 14498 ft | 417 kts | 110° |
| 2026-04-26 16:52 | 25.62499 | 54.43379 | 14132 ft | 415 kts | 110° |
| 2026-04-26 16:52 | 25.61247 | 54.47412 | 13362 ft | 412 kts | 109° |
| 2026-04-26 16:52 | 25.60320 | 54.50400 | 12767 ft | 409 kts | 109° |
| 2026-04-26 16:53 | 25.59396 | 54.53377 | 12188 ft | 408 kts | 109° |
| 2026-04-26 16:53 | 25.58545 | 54.56379 | 11973 ft | 409 kts | 103° |
| 2026-04-26 16:53 | 25.58151 | 54.59493 | 11955 ft | 409 kts | 92° |
| 2026-04-26 16:53 | 25.58244 | 54.62529 | 11961 ft | 390 kts | 82° |
| 2026-04-26 16:54 | 25.58609 | 54.65427 | 11962 ft | 371 kts | 81° |
| 2026-04-26 16:54 | 25.58960 | 54.68192 | 11963 ft | 354 kts | 81° |
| 2026-04-26 16:54 | 25.59292 | 54.70837 | 11963 ft | 339 kts | 81° |
| 2026-04-26 16:54 | 25.59610 | 54.73362 | 11962 ft | 324 kts | 81° |
| 2026-04-26 16:55 | 25.59916 | 54.75787 | 11962 ft | 310 kts | 81° |
| 2026-04-26 16:55 | 25.60210 | 54.78116 | 11963 ft | 303 kts | 80° |
| 2026-04-26 16:55 | 25.60499 | 54.80418 | 11960 ft | 301 kts | 80° |
| 2026-04-26 16:55 | 25.60787 | 54.82705 | 11730 ft | 299 kts | 80° |
| 2026-04-26 16:56 | 25.60778 | 54.87267 | 11123 ft | 298 kts | 104° |
| 2026-04-26 16:56 | 25.60067 | 54.89417 | 10825 ft | 297 kts | 114° |
| 2026-04-26 16:56 | 25.59243 | 54.91508 | 10524 ft | 296 kts | 114° |
| 2026-04-26 16:57 | 25.58425 | 54.93599 | 10217 ft | 295 kts | 114° |
| 2026-04-26 16:57 | 25.57611 | 54.95684 | 9907 ft | 294 kts | 114° |
| 2026-04-26 16:57 | 25.56001 | 54.99831 | 9267 ft | 292 kts | 113° |
| 2026-04-26 16:58 | 25.55201 | 55.01894 | 8955 ft | 290 kts | 113° |
| 2026-04-26 16:58 | 25.54668 | 55.03246 | 8744 ft | 288 kts | 116° |
| 2026-04-26 16:58 | 25.52362 | 55.07736 | 7989 ft | 284 kts | 120° |
| 2026-04-26 16:59 | 25.51378 | 55.09631 | 7948 ft | 285 kts | 120° |
| 2026-04-26 16:59 | 25.49410 | 55.13423 | 7958 ft | 286 kts | 120° |
| 2026-04-26 17:00 | 25.47422 | 55.17243 | 7952 ft | 287 kts | 120° |
| 2026-04-26 17:00 | 25.45218 | 55.20910 | 7954 ft | 286 kts | 133° |
| 2026-04-26 17:00 | 25.43884 | 55.22539 | 7955 ft | 286 kts | 133° |
| 2026-04-26 17:01 | 25.42551 | 55.24172 | 7960 ft | 286 kts | 133° |
| 2026-04-26 17:01 | 25.41221 | 55.25803 | 7958 ft | 286 kts | 133° |
| 2026-04-26 17:01 | 25.39892 | 55.27437 | 7956 ft | 286 kts | 132° |
| 2026-04-26 17:01 | 25.38563 | 55.29072 | 7953 ft | 286 kts | 132° |
| 2026-04-26 17:02 | 25.37246 | 55.30693 | 7948 ft | 277 kts | 132° |
| 2026-04-26 17:02 | 25.35959 | 55.32217 | 7968 ft | 269 kts | 139° |
| 2026-04-26 17:02 | 25.34432 | 55.33375 | 7944 ft | 265 kts | 154° |
| 2026-04-26 17:02 | 25.32817 | 55.34322 | 7767 ft | 259 kts | 154° |
| 2026-04-26 17:03 | 25.31246 | 55.35242 | 7592 ft | 255 kts | 154° |
| 2026-04-26 17:03 | 25.29634 | 55.36184 | 7002 ft | 269 kts | 153° |
| 2026-04-26 17:03 | 25.27943 | 55.37171 | 6425 ft | 281 kts | 153° |
| 2026-04-26 17:03 | 25.26219 | 55.38177 | 6129 ft | 278 kts | 153° |
| 2026-04-26 17:04 | 25.24526 | 55.39165 | 5965 ft | 270 kts | 153° |
| 2026-04-26 17:04 | 25.22914 | 55.40107 | 5968 ft | 255 kts | 153° |
| 2026-04-26 17:04 | 25.21377 | 55.41010 | 5867 ft | 246 kts | 153° |
| 2026-04-26 17:04 | 25.19914 | 55.41870 | 5772 ft | 230 kts | 153° |
| 2026-04-26 17:05 | 25.18529 | 55.42681 | 5560 ft | 222 kts | 154° |
| 2026-04-26 17:05 | 25.17170 | 55.43475 | 5248 ft | 221 kts | 154° |
| 2026-04-26 17:05 | 25.15803 | 55.44274 | 4868 ft | 223 kts | 154° |
| 2026-04-26 17:05 | 25.14433 | 55.45075 | 4528 ft | 223 kts | 154° |
| 2026-04-26 17:06 | 25.13066 | 55.45872 | 4184 ft | 221 kts | 154° |
| 2026-04-26 17:06 | 25.11764 | 55.46732 | 3850 ft | 221 kts | 143° |
| 2026-04-26 17:06 | 25.10680 | 55.47929 | 3522 ft | 221 kts | 127° |
| 2026-04-26 17:06 | 25.09861 | 55.49358 | 3191 ft | 220 kts | 121° |
| 2026-04-26 17:07 | 25.09076 | 55.50781 | 3009 ft | 215 kts | 121° |
| 2026-04-26 17:07 | 25.08296 | 55.52178 | 2974 ft | 213 kts | 121° |
| 2026-04-26 17:07 | 25.07510 | 55.53581 | 2981 ft | 216 kts | 122° |
| 2026-04-26 17:07 | 25.06722 | 55.54992 | 2981 ft | 216 kts | 121° |
| 2026-04-26 17:08 | 25.06299 | 55.56553 | 2977 ft | 214 kts | 86° |
| 2026-04-26 17:08 | 25.06749 | 55.58056 | 2976 ft | 199 kts | 47° |
| 2026-04-26 17:08 | 25.07684 | 55.59078 | 2973 ft | 183 kts | 32° |
| 2026-04-26 17:08 | 25.08794 | 55.59543 | 2975 ft | 165 kts | 351° |
| 2026-04-26 17:09 | 25.09878 | 55.59252 | 2975 ft | 159 kts | 335° |
| 2026-04-26 17:09 | 25.10558 | 55.58957 | 2976 ft | 158 kts | 333° |
| 2026-04-26 17:09 | 25.11842 | 55.58363 | 2966 ft | 143 kts | 332° |
| 2026-04-26 17:09 | 25.12611 | 55.57722 | 2931 ft | 137 kts | 305° |
| 2026-04-26 17:10 | 25.13170 | 55.56864 | 2687 ft | 138 kts | 304° |
| 2026-04-26 17:10 | 25.13725 | 55.55995 | 2539 ft | 142 kts | 303° |
| 2026-04-26 17:10 | 25.14310 | 55.55073 | 2482 ft | 149 kts | 303° |
| 2026-04-26 17:10 | 25.14910 | 55.54157 | 2482 ft | 149 kts | 304° |
| 2026-04-26 17:11 | 25.15532 | 55.53238 | 2481 ft | 150 kts | 304° |
| 2026-04-26 17:11 | 25.16142 | 55.52300 | 2470 ft | 151 kts | 304° |
| 2026-04-26 17:11 | 25.16749 | 55.51341 | 2479 ft | 153 kts | 303° |
| 2026-04-26 17:11 | 25.17341 | 55.50380 | 2339 ft | 151 kts | 302° |
| 2026-04-26 17:12 | 25.18525 | 55.48478 | 1893 ft | 149 kts | 303° |
| 2026-04-26 17:12 | 25.19122 | 55.47615 | 1691 ft | 134 kts | 307° |
| 2026-04-26 17:13 | 25.20256 | 55.46065 | 1147 ft | 128 kts | 304° |
| 2026-04-26 17:13 | 25.20781 | 55.45276 | 960 ft | 128 kts | 302° |
| 2026-04-26 17:13 | 25.21723 | 55.43511 | 671 ft | 136 kts | 300° |
| 2026-04-26 17:14 | 25.22241 | 55.42632 | 640 ft | 138 kts | 300° |
| 2026-04-26 17:14 | 25.23259 | 55.40843 | 405 ft | 136 kts | 299° |
| 2026-04-26 17:14 | 25.23777 | 55.39961 | 275 ft | 137 kts | 298° |
| 2026-04-26 17:15 | 25.24727 | 55.38170 | 52 ft | 134 kts | 300° |
| 2026-04-26 17:15 | 25.25160 | 55.37370 | 30 ft | 93 kts | 301° |
| 2026-04-26 17:15 | 25.25336 | 55.37049 | 23 ft | 37 kts | 301° |